Lagoa Dourada, Brazil
Current Conditions -  °F | °C
As of 7:00 AM on Thursday 23 Oct 2014 (Local Time) from SBBH Reporting Station
Overcast Overcast  
Wind Chill: 66°   Ceiling: 1600
Heat Index: 66°   Visibility: 6mi
Dew Point: 57°   Wind: 7mph
Humidity: 73%   Direction: 110°ESE
Pressure: 30.18"   Gusts: NA
Location:  20.91°S, 44.08°W
Report Text: SBBH 230900Z 11006KT 9999 OVC016 19/14 Q1022
Loading
Personal Weather Stations






























Interactive Weather Map
Tropical Storm Tracking
New forecast layout! Learn more

10-Day Weather Forecast

Advertisements
Track Severe Weather on mobile